sensor_id;sensor_type;location;lat;lon;timestamp;pressure;altitude;pressure_sealevel;temperature;humidity
3590;BME280;1809;48.470;9.226;2022-08-30T00:01:20;97064.63;;;17.11;100.00
3590;BME280;1809;48.470;9.226;2022-08-30T00:03:47;97063.38;;;17.09;100.00
3590;BME280;1809;48.470;9.226;2022-08-30T00:06:14;97062.91;;;17.07;100.00
3590;BME280;1809;48.470;9.226;2022-08-30T00:08:41;97063.25;;;17.05;100.00
3590;BME280;1809;48.470;9.226;2022-08-30T00:11:10;97069.47;;;16.97;100.00
3590;BME280;1809;48.470;9.226;2022-08-30T00:13:37;97069.81;;;16.96;100.00
3590;BME280;1809;48.470;9.226;2022-08-30T00:16:03;97067.41;;;16.94;100.00
3590;BME280;1809;48.470;9.226;2022-08-30T00:18:31;97064.91;;;16.89;100.00
3590;BME280;1809;48.470;9.226;2022-08-30T00:20:57;97071.63;;;16.83;100.00
3590;BME280;1809;48.470;9.226;2022-08-30T00:23:23;97067.00;;;16.84;100.00
3590;BME280;1809;48.470;9.226;2022-08-30T00:25:48;97062.72;;;16.83;100.00
3590;BME280;1809;48.470;9.226;2022-08-30T00:28:14;97068.13;;;16.83;100.00
3590;BME280;1809;48.470;9.226;2022-08-30T00:30:41;97069.38;;;16.85;100.00
3590;BME280;1809;48.470;9.226;2022-08-30T00:33:08;97070.03;;;16.82;100.00
3590;BME280;1809;48.470;9.226;2022-08-30T00:35:34;97070.22;;;16.77;100.00
3590;BME280;1809;48.470;9.226;2022-08-30T00:38:00;97071.97;;;16.73;100.00
3590;BME280;1809;48.470;9.226;2022-08-30T00:40:26;97074.88;;;16.68;100.00
3590;BME280;1809;48.470;9.226;2022-08-30T00:42:54;97071.41;;;16.59;100.00
3590;BME280;1809;48.470;9.226;2022-08-30T00:45:25;97067.41;;;16.56;100.00
3590;BME280;1809;48.470;9.226;2022-08-30T00:47:52;97065.34;;;16.53;100.00
3590;BME280;1809;48.470;9.226;2022-08-30T00:50:21;97069.47;;;16.51;100.00
3590;BME280;1809;48.470;9.226;2022-08-30T00:52:50;97073.78;;;16.52;100.00
3590;BME280;1809;48.470;9.226;2022-08-30T00:55:18;97067.91;;;16.50;100.00
3590;BME280;1809;48.470;9.226;2022-08-30T00:57:45;97068.22;;;16.57;100.00
3590;BME280;1809;48.470;9.226;2022-08-30T01:00:13;97075.81;;;16.63;100.00
3590;BME280;1809;48.470;9.226;2022-08-30T01:02:40;97079.66;;;16.62;100.00
3590;BME280;1809;48.470;9.226;2022-08-30T01:05:07;97073.63;;;16.57;100.00
3590;BME280;1809;48.470;9.226;2022-08-30T01:07:35;97070.13;;;16.56;100.00
3590;BME280;1809;48.470;9.226;2022-08-30T01:10:01;97077.13;;;16.49;100.00
3590;BME280;1809;48.470;9.226;2022-08-30T01:12:27;97072.81;;;16.48;100.00
3590;BME280;1809;48.470;9.226;2022-08-30T01:14:54;97076.81;;;16.42;100.00
3590;BME280;1809;48.470;9.226;2022-08-30T01:17:20;97070.94;;;16.40;100.00
3590;BME280;1809;48.470;9.226;2022-08-30T01:19:58;97072.06;;;16.39;100.00
3590;BME280;1809;48.470;9.226;2022-08-30T01:25:07;97075.59;;;16.31;100.00
3590;BME280;1809;48.470;9.226;2022-08-30T01:27:37;97073.19;;;16.29;100.00
3590;BME280;1809;48.470;9.226;2022-08-30T01:30:05;97068.59;;;16.30;100.00
3590;BME280;1809;48.470;9.226;2022-08-30T01:32:37;97070.19;;;16.31;100.00
3590;BME280;1809;48.470;9.226;2022-08-30T01:35:03;97075.59;;;16.31;100.00
3590;BME280;1809;48.470;9.226;2022-08-30T01:37:30;97072.41;;;16.29;100.00
3590;BME280;1809;48.470;9.226;2022-08-30T01:39:58;97075.09;;;16.37;100.00
3590;BME280;1809;48.470;9.226;2022-08-30T01:42:24;97070.00;;;16.36;100.00
3590;BME280;1809;48.470;9.226;2022-08-30T01:44:50;97067.50;;;16.31;100.00
3590;BME280;1809;48.470;9.226;2022-08-30T01:47:16;97064.78;;;16.31;100.00
3590;BME280;1809;48.470;9.226;2022-08-30T01:49:46;97064.13;;;16.34;100.00
3590;BME280;1809;48.470;9.226;2022-08-30T01:52:12;97066.53;;;16.27;100.00
3590;BME280;1809;48.470;9.226;2022-08-30T01:54:39;97068.28;;;16.23;100.00
3590;BME280;1809;48.470;9.226;2022-08-30T01:57:08;97073.34;;;16.33;100.00
3590;BME280;1809;48.470;9.226;2022-08-30T01:59:35;97068.13;;;16.28;100.00
3590;BME280;1809;48.470;9.226;2022-08-30T02:02:01;97072.75;;;16.19;100.00
3590;BME280;1809;48.470;9.226;2022-08-30T02:04:26;97078.78;;;16.16;100.00
3590;BME280;1809;48.470;9.226;2022-08-30T02:06:52;97074.03;;;16.12;100.00
3590;BME280;1809;48.470;9.226;2022-08-30T02:09:18;97074.19;;;16.07;100.00
3590;BME280;1809;48.470;9.226;2022-08-30T02:11:44;97081.31;;;16.03;100.00
3590;BME280;1809;48.470;9.226;2022-08-30T02:14:10;97077.38;;;16.01;100.00
3590;BME280;1809;48.470;9.226;2022-08-30T02:16:35;97076.88;;;16.07;100.00
3590;BME280;1809;48.470;9.226;2022-08-30T02:19:00;97070.84;;;16.10;100.00
3590;BME280;1809;48.470;9.226;2022-08-30T02:21:26;97077.53;;;16.04;100.00
3590;BME280;1809;48.470;9.226;2022-08-30T02:23:54;97074.69;;;16.09;100.00
3590;BME280;1809;48.470;9.226;2022-08-30T02:26:21;97074.38;;;16.02;100.00
3590;BME280;1809;48.470;9.226;2022-08-30T02:28:47;97071.16;;;16.00;100.00
3590;BME280;1809;48.470;9.226;2022-08-30T02:31:13;97068.66;;;15.95;100.00
3590;BME280;1809;48.470;9.226;2022-08-30T02:33:38;97067.06;;;15.94;100.00
3590;BME280;1809;48.470;9.226;2022-08-30T02:36:05;97060.56;;;15.87;100.00
3590;BME280;1809;48.470;9.226;2022-08-30T02:38:30;97066.13;;;15.82;100.00
3590;BME280;1809;48.470;9.226;2022-08-30T02:40:56;97072.81;;;15.84;100.00
3590;BME280;1809;48.470;9.226;2022-08-30T02:43:21;97064.84;;;15.79;100.00
3590;BME280;1809;48.470;9.226;2022-08-30T02:45:47;97054.06;;;15.79;100.00
3590;BME280;1809;48.470;9.226;2022-08-30T02:48:13;97064.84;;;15.79;100.00
3590;BME280;1809;48.470;9.226;2022-08-30T02:50:44;97053.59;;;15.77;100.00
3590;BME280;1809;48.470;9.226;2022-08-30T02:53:10;97050.06;;;16.66;100.00
3590;BME280;1809;48.470;9.226;2022-08-30T02:55:36;97049.75;;;17.47;100.00
3590;BME280;1809;48.470;9.226;2022-08-30T02:58:02;97048.69;;;18.01;100.00
3590;BME280;1809;48.470;9.226;2022-08-30T03:00:27;97057.75;;;18.50;100.00
3590;BME280;1809;48.470;9.226;2022-08-30T03:02:52;97053.63;;;18.65;100.00
3590;BME280;1809;48.470;9.226;2022-08-30T03:05:18;97054.06;;;18.79;100.00
3590;BME280;1809;48.470;9.226;2022-08-30T03:07:44;97057.44;;;19.00;100.00
3590;BME280;1809;48.470;9.226;2022-08-30T03:10:13;97064.38;;;18.41;100.00
3590;BME280;1809;48.470;9.226;2022-08-30T03:12:38;97067.13;;;17.87;100.00
3590;BME280;1809;48.470;9.226;2022-08-30T03:15:07;97063.03;;;17.40;100.00
3590;BME280;1809;48.470;9.226;2022-08-30T03:17:32;97063.38;;;17.09;100.00
3590;BME280;1809;48.470;9.226;2022-08-30T03:19:58;97056.06;;;16.80;100.00
3590;BME280;1809;48.470;9.226;2022-08-30T03:22:26;97053.59;;;16.58;100.00
3590;BME280;1809;48.470;9.226;2022-08-30T03:24:52;97039.66;;;16.39;100.00
3590;BME280;1809;48.470;9.226;2022-08-30T03:27:17;97042.09;;;16.23;100.00
3590;BME280;1809;48.470;9.226;2022-08-30T03:29:42;97038.16;;;16.12;100.00
3590;BME280;1809;48.470;9.226;2022-08-30T03:32:08;97043.44;;;16.00;100.00
3590;BME280;1809;48.470;9.226;2022-08-30T03:34:33;97036.47;;;15.90;100.00
3590;BME280;1809;48.470;9.226;2022-08-30T03:36:59;97030.75;;;15.83;100.00
3590;BME280;1809;48.470;9.226;2022-08-30T03:39:26;97032.50;;;15.79;100.00
3590;BME280;1809;48.470;9.226;2022-08-30T03:41:51;97033.31;;;15.71;100.00
3590;BME280;1809;48.470;9.226;2022-08-30T03:44:18;97030.28;;;15.64;100.00
3590;BME280;1809;48.470;9.226;2022-08-30T03:46:44;97036.00;;;15.54;100.00
3590;BME280;1809;48.470;9.226;2022-08-30T03:49:09;97032.66;;;15.48;100.00
3590;BME280;1809;48.470;9.226;2022-08-30T03:51:34;97037.25;;;15.48;100.00
3590;BME280;1809;48.470;9.226;2022-08-30T03:54:00;97034.06;;;15.46;100.00
3590;BME280;1809;48.470;9.226;2022-08-30T03:56:26;97030.56;;;15.37;100.00
3590;BME280;1809;48.470;9.226;2022-08-30T03:58:51;97037.56;;;15.38;100.00
3590;BME280;1809;48.470;9.226;2022-08-30T04:01:17;97037.41;;;15.34;100.00
3590;BME280;1809;48.470;9.226;2022-08-30T04:03:42;97027.41;;;15.35;100.00
3590;BME280;1809;48.470;9.226;2022-08-30T04:06:08;97029.47;;;15.38;100.00
3590;BME280;1809;48.470;9.226;2022-08-30T04:08:33;97026.78;;;15.38;100.00
3590;BME280;1809;48.470;9.226;2022-08-30T04:10:59;97035.81;;;15.42;100.00
3590;BME280;1809;48.470;9.226;2022-08-30T04:13:27;97026.63;;;15.34;100.00
3590;BME280;1809;48.470;9.226;2022-08-30T04:15:53;97029.16;;;15.39;100.00
3590;BME280;1809;48.470;9.226;2022-08-30T04:18:18;97035.00;;;15.33;100.00
3590;BME280;1809;48.470;9.226;2022-08-30T04:20:44;97032.47;;;15.28;100.00
3590;BME280;1809;48.470;9.226;2022-08-30T04:23:09;97046.09;;;15.23;100.00
3590;BME280;1809;48.470;9.226;2022-08-30T04:25:37;97037.38;;;15.17;100.00
3590;BME280;1809;48.470;9.226;2022-08-30T04:28:03;97037.69;;;15.16;100.00
3590;BME280;1809;48.470;9.226;2022-08-30T04:30:29;97047.69;;;15.24;100.00
3590;BME280;1809;48.470;9.226;2022-08-30T04:32:55;97049.75;;;15.27;100.00
3590;BME280;1809;48.470;9.226;2022-08-30T04:35:21;97051.00;;;15.29;100.00
3590;BME280;1809;48.470;9.226;2022-08-30T04:37:46;97045.50;;;15.34;100.00
3590;BME280;1809;48.470;9.226;2022-08-30T04:40:12;97043.72;;;15.30;100.00
3590;BME280;1809;48.470;9.226;2022-08-30T04:42:38;97051.81;;;15.30;100.00
3590;BME280;1809;48.470;9.226;2022-08-30T04:45:06;97046.41;;;15.30;100.00
3590;BME280;1809;48.470;9.226;2022-08-30T04:47:32;97050.53;;;15.27;100.00
3590;BME280;1809;48.470;9.226;2022-08-30T04:49:58;97053.22;;;15.27;100.00
3590;BME280;1809;48.470;9.226;2022-08-30T04:52:23;97057.06;;;15.35;100.00
3590;BME280;1809;48.470;9.226;2022-08-30T04:54:54;97051.50;;;15.31;100.00
3590;BME280;1809;48.470;9.226;2022-08-30T04:57:20;97054.19;;;15.31;100.00
3590;BME280;1809;48.470;9.226;2022-08-30T04:59:45;97054.38;;;15.35;100.00
3590;BME280;1809;48.470;9.226;2022-08-30T05:02:11;97060.69;;;15.39;100.00
3590;BME280;1809;48.470;9.226;2022-08-30T05:04:37;97058.50;;;15.41;100.00
3590;BME280;1809;48.470;9.226;2022-08-30T05:07:22;97065.81;;;15.49;100.00
3590;BME280;1809;48.470;9.226;2022-08-30T05:09:47;97079.91;;;15.54;100.00
3590;BME280;1809;48.470;9.226;2022-08-30T05:12:13;97078.19;;;15.67;100.00
3590;BME280;1809;48.470;9.226;2022-08-30T05:14:38;97080.75;;;15.72;100.00
3590;BME280;1809;48.470;9.226;2022-08-30T05:17:03;97088.66;;;15.77;100.00
3590;BME280;1809;48.470;9.226;2022-08-30T05:19:30;97087.84;;;15.85;100.00
3590;BME280;1809;48.470;9.226;2022-08-30T05:21:58;97090.41;;;15.99;100.00
3590;BME280;1809;48.470;9.226;2022-08-30T05:24:23;97101.66;;;16.01;100.00
3590;BME280;1809;48.470;9.226;2022-08-30T05:26:48;97104.81;;;16.11;100.00
3590;BME280;1809;48.470;9.226;2022-08-30T05:29:14;97101.63;;;16.27;100.00
3590;BME280;1809;48.470;9.226;2022-08-30T05:31:39;97104.31;;;16.27;100.00
3590;BME280;1809;48.470;9.226;2022-08-30T05:34:05;97112.09;;;16.37;100.00
3590;BME280;1809;48.470;9.226;2022-08-30T05:36:33;97100.00;;;16.43;100.00
3590;BME280;1809;48.470;9.226;2022-08-30T05:38:59;97117.69;;;16.87;100.00
3590;BME280;1809;48.470;9.226;2022-08-30T05:41:25;97105.88;;;17.50;100.00
3590;BME280;1809;48.470;9.226;2022-08-30T05:43:57;97106.53;;;18.30;100.00
3590;BME280;1809;48.470;9.226;2022-08-30T05:46:24;97104.31;;;19.25;100.00
3590;BME280;1809;48.470;9.226;2022-08-30T05:48:50;97107.47;;;19.75;100.00
3590;BME280;1809;48.470;9.226;2022-08-30T05:51:18;97106.72;;;20.30;100.00
3590;BME280;1809;48.470;9.226;2022-08-30T05:53:45;97104.91;;;21.09;100.00
3590;BME280;1809;48.470;9.226;2022-08-30T05:56:15;97093.56;;;21.58;100.00
3590;BME280;1809;48.470;9.226;2022-08-30T05:58:41;97096.69;;;21.91;100.00
3590;BME280;1809;48.470;9.226;2022-08-30T06:01:17;97101.19;;;22.64;100.00
3590;BME280;1809;48.470;9.226;2022-08-30T06:03:43;97102.41;;;23.34;100.00
3590;BME280;1809;48.470;9.226;2022-08-30T06:06:08;97098.19;;;24.23;100.00
3590;BME280;1809;48.470;9.226;2022-08-30T06:08:33;97101.88;;;24.74;100.00
3590;BME280;1809;48.470;9.226;2022-08-30T06:10:59;97099.94;;;25.15;100.00
3590;BME280;1809;48.470;9.226;2022-08-30T06:13:24;97102.56;;;25.52;100.00
3590;BME280;1809;48.470;9.226;2022-08-30T06:15:49;97108.97;;;25.74;100.00
3590;BME280;1809;48.470;9.226;2022-08-30T06:18:16;97102.00;;;25.87;100.00
3590;BME280;1809;48.470;9.226;2022-08-30T06:20:43;97109.25;;;26.23;100.00
3590;BME280;1809;48.470;9.226;2022-08-30T06:23:12;97118.00;;;26.74;100.00
3590;BME280;1809;48.470;9.226;2022-08-30T06:25:37;97113.63;;;25.66;100.00
3590;BME280;1809;48.470;9.226;2022-08-30T06:28:04;97113.00;;;24.55;100.00
3590;BME280;1809;48.470;9.226;2022-08-30T06:30:31;97118.53;;;24.95;100.00
3590;BME280;1809;48.470;9.226;2022-08-30T06:32:56;97117.81;;;25.49;100.00
3590;BME280;1809;48.470;9.226;2022-08-30T06:35:22;97116.13;;;25.38;100.00
3590;BME280;1809;48.470;9.226;2022-08-30T06:37:47;97124.47;;;24.68;100.00
3590;BME280;1809;48.470;9.226;2022-08-30T06:40:13;97112.00;;;24.03;100.00
3590;BME280;1809;48.470;9.226;2022-08-30T06:42:40;97113.69;;;24.82;100.00
3590;BME280;1809;48.470;9.226;2022-08-30T06:45:06;97106.00;;;24.57;100.00
3590;BME280;1809;48.470;9.226;2022-08-30T06:47:32;97106.06;;;25.01;100.00
3590;BME280;1809;48.470;9.226;2022-08-30T06:49:57;97113.28;;;25.24;100.00
3590;BME280;1809;48.470;9.226;2022-08-30T06:52:23;97106.09;;;25.05;100.00
3590;BME280;1809;48.470;9.226;2022-08-30T06:54:49;97104.81;;;25.39;100.00
3590;BME280;1809;48.470;9.226;2022-08-30T06:57:14;97106.81;;;26.11;100.00
3590;BME280;1809;48.470;9.226;2022-08-30T06:59:40;97107.44;;;26.73;100.00
3590;BME280;1809;48.470;9.226;2022-08-30T07:02:06;97116.13;;;27.74;100.00
3590;BME280;1809;48.470;9.226;2022-08-30T07:04:32;97127.44;;;28.01;100.00
3590;BME280;1809;48.470;9.226;2022-08-30T07:06:58;97114.09;;;28.06;100.00
3590;BME280;1809;48.470;9.226;2022-08-30T07:09:23;97117.25;;;26.78;100.00
3590;BME280;1809;48.470;9.226;2022-08-30T07:11:50;97105.78;;;26.40;100.00
3590;BME280;1809;48.470;9.226;2022-08-30T07:14:16;97106.19;;;26.42;100.00
3590;BME280;1809;48.470;9.226;2022-08-30T07:16:42;97106.97;;;25.16;100.00
3590;BME280;1809;48.470;9.226;2022-08-30T07:19:08;97102.81;;;24.15;100.00
3590;BME280;1809;48.470;9.226;2022-08-30T07:21:39;97093.69;;;23.78;100.00
3590;BME280;1809;48.470;9.226;2022-08-30T07:24:05;97095.50;;;22.91;100.00
3590;BME280;1809;48.470;9.226;2022-08-30T07:26:34;97093.16;;;22.71;100.00
3590;BME280;1809;48.470;9.226;2022-08-30T07:28:59;97095.72;;;22.41;100.00
3590;BME280;1809;48.470;9.226;2022-08-30T07:31:26;97098.94;;;22.27;100.00
3590;BME280;1809;48.470;9.226;2022-08-30T07:33:52;97095.50;;;22.11;100.00
3590;BME280;1809;48.470;9.226;2022-08-30T07:36:18;97089.63;;;21.90;100.00
3590;BME280;1809;48.470;9.226;2022-08-30T07:38:45;97097.63;;;21.64;100.00
3590;BME280;1809;48.470;9.226;2022-08-30T07:41:25;97099.50;;;21.79;100.00
3590;BME280;1809;48.470;9.226;2022-08-30T07:43:52;97097.13;;;21.77;100.00
3590;BME280;1809;48.470;9.226;2022-08-30T07:46:18;97096.78;;;21.79;100.00
3590;BME280;1809;48.470;9.226;2022-08-30T07:48:44;97097.25;;;22.19;100.00
3590;BME280;1809;48.470;9.226;2022-08-30T07:51:18;97102.47;;;22.09;100.00
3590;BME280;1809;48.470;9.226;2022-08-30T07:53:44;97096.38;;;22.15;100.00
3590;BME280;1809;48.470;9.226;2022-08-30T07:56:11;97100.22;;;22.52;100.00
3590;BME280;1809;48.470;9.226;2022-08-30T07:58:36;97100.34;;;22.60;100.00
3590;BME280;1809;48.470;9.226;2022-08-30T08:01:07;97105.16;;;22.89;100.00
3590;BME280;1809;48.470;9.226;2022-08-30T08:03:33;97109.00;;;22.84;100.00
3590;BME280;1809;48.470;9.226;2022-08-30T08:06:01;97107.06;;;22.85;100.00
3590;BME280;1809;48.470;9.226;2022-08-30T08:08:27;97107.81;;;22.63;100.00
3590;BME280;1809;48.470;9.226;2022-08-30T08:10:53;97111.84;;;22.69;100.00
3590;BME280;1809;48.470;9.226;2022-08-30T08:13:18;97119.44;;;22.79;100.00
3590;BME280;1809;48.470;9.226;2022-08-30T08:15:44;97116.75;;;23.05;100.00
3590;BME280;1809;48.470;9.226;2022-08-30T08:18:09;97123.53;;;22.92;100.00
3590;BME280;1809;48.470;9.226;2022-08-30T08:20:35;97121.44;;;22.82;100.00
3590;BME280;1809;48.470;9.226;2022-08-30T08:23:00;97119.59;;;23.12;100.00
3590;BME280;1809;48.470;9.226;2022-08-30T08:25:27;97115.97;;;23.04;100.00
3590;BME280;1809;48.470;9.226;2022-08-30T08:27:52;97113.28;;;23.31;100.00
3590;BME280;1809;48.470;9.226;2022-08-30T08:30:19;97113.53;;;23.22;100.00
3590;BME280;1809;48.470;9.226;2022-08-30T08:32:45;97103.59;;;23.11;100.00
3590;BME280;1809;48.470;9.226;2022-08-30T08:35:11;97106.91;;;23.23;100.00
3590;BME280;1809;48.470;9.226;2022-08-30T08:37:37;97101.28;;;23.62;100.00
3590;BME280;1809;48.470;9.226;2022-08-30T08:40:05;97093.41;;;23.57;100.00
3590;BME280;1809;48.470;9.226;2022-08-30T08:45:37;97098.59;;;23.95;100.00
3590;BME280;1809;48.470;9.226;2022-08-30T08:50:56;97111.22;;;24.03;100.00
3590;BME280;1809;48.470;9.226;2022-08-30T08:53:44;97102.38;;;24.46;100.00
3590;BME280;1809;48.470;9.226;2022-08-30T08:56:14;97100.44;;;24.47;100.00
3590;BME280;1809;48.470;9.226;2022-08-30T09:01:09;97103.75;;;24.67;100.00
3590;BME280;1809;48.470;9.226;2022-08-30T09:03:36;97099.47;;;24.69;100.00
3590;BME280;1809;48.470;9.226;2022-08-30T09:06:09;97101.91;;;24.78;100.00
3590;BME280;1809;48.470;9.226;2022-08-30T09:08:39;97095.97;;;24.72;100.00
3590;BME280;1809;48.470;9.226;2022-08-30T09:11:08;97091.28;;;25.13;100.00
3590;BME280;1809;48.470;9.226;2022-08-30T09:13:41;97099.03;;;25.04;100.00
3590;BME280;1809;48.470;9.226;2022-08-30T09:16:06;97094.97;;;25.31;100.00
3590;BME280;1809;48.470;9.226;2022-08-30T09:18:44;97086.75;;;25.35;100.00
3590;BME280;1809;48.470;9.226;2022-08-30T09:21:10;97087.91;;;25.30;100.00
3590;BME280;1809;48.470;9.226;2022-08-30T09:23:36;97092.19;;;25.24;100.00
3590;BME280;1809;48.470;9.226;2022-08-30T09:26:11;97087.97;;;25.37;100.00
3590;BME280;1809;48.470;9.226;2022-08-30T09:28:48;97086.09;;;25.48;100.00
3590;BME280;1809;48.470;9.226;2022-08-30T09:31:20;97073.84;;;25.93;100.00
3590;BME280;1809;48.470;9.226;2022-08-30T09:34:06;97078.47;;;25.82;100.00
3590;BME280;1809;48.470;9.226;2022-08-30T09:36:38;97079.84;;;26.20;100.00
3590;BME280;1809;48.470;9.226;2022-08-30T09:39:13;97074.81;;;26.36;100.00
3590;BME280;1809;48.470;9.226;2022-08-30T09:41:42;97074.78;;;26.29;100.00
3590;BME280;1809;48.470;9.226;2022-08-30T09:44:20;97068.53;;;26.36;100.00
3590;BME280;1809;48.470;9.226;2022-08-30T09:46:53;97072.50;;;26.49;100.00
3590;BME280;1809;48.470;9.226;2022-08-30T09:49:30;97063.16;;;26.82;100.00
3590;BME280;1809;48.470;9.226;2022-08-30T10:11:08;97046.69;;;27.17;100.00
3590;BME280;1809;48.470;9.226;2022-08-30T10:21:40;97028.53;;;27.72;100.00
3590;BME280;1809;48.470;9.226;2022-08-30T10:24:20;97026.91;;;27.89;100.00
3590;BME280;1809;48.470;9.226;2022-08-30T10:26:56;97020.63;;;27.89;100.00
3590;BME280;1809;48.470;9.226;2022-08-30T10:31:59;97017.72;;;28.24;100.00
3590;BME280;1809;48.470;9.226;2022-08-30T10:34:37;97022.94;;;28.08;100.00
3590;BME280;1809;48.470;9.226;2022-08-30T10:37:14;97012.31;;;28.10;100.00
3590;BME280;1809;48.470;9.226;2022-08-30T10:39:46;97017.59;;;28.49;100.00
3590;BME280;1809;48.470;9.226;2022-08-30T10:42:45;97024.09;;;28.76;100.00
3590;BME280;1809;48.470;9.226;2022-08-30T10:45:14;97018.97;;;28.78;100.00
3590;BME280;1809;48.470;9.226;2022-08-30T10:47:54;97020.81;;;28.95;100.00
3590;BME280;1809;48.470;9.226;2022-08-30T10:50:36;97018.44;;;28.94;100.00
3590;BME280;1809;48.470;9.226;2022-08-30T10:56:14;97017.75;;;28.86;100.00
3590;BME280;1809;48.470;9.226;2022-08-30T10:58:41;97022.31;;;29.03;100.00
3590;BME280;1809;48.470;9.226;2022-08-30T11:09:51;97023.19;;;28.90;100.00
3590;BME280;1809;48.470;9.226;2022-08-30T11:13:28;97022.31;;;29.00;100.00
3590;BME280;1809;48.470;9.226;2022-08-30T11:15:25;97018.47;;;28.90;100.00
3590;BME280;1809;48.470;9.226;2022-08-30T11:20:39;97024.78;;;28.87;100.00
3590;BME280;1809;48.470;9.226;2022-08-30T11:23:32;97026.47;;;28.74;100.00
3590;BME280;1809;48.470;9.226;2022-08-30T11:26:07;97022.88;;;29.28;100.00
3590;BME280;1809;48.470;9.226;2022-08-30T11:31:09;97024.94;;;28.69;100.00
3590;BME280;1809;48.470;9.226;2022-08-30T11:33:49;97018.50;;;28.87;100.00
3590;BME280;1809;48.470;9.226;2022-08-30T11:41:37;97028.06;;;29.60;96.61
3590;BME280;1809;48.470;9.226;2022-08-30T11:46:48;97026.53;;;29.56;95.12
3590;BME280;1809;48.470;9.226;2022-08-30T11:51:51;97027.31;;;29.56;91.91
3590;BME280;1809;48.470;9.226;2022-08-30T11:59:46;97021.56;;;29.77;100.00
3590;BME280;1809;48.470;9.226;2022-08-30T12:02:42;97022.41;;;29.71;100.00
3590;BME280;1809;48.470;9.226;2022-08-30T12:08:01;97016.84;;;29.41;100.00
3590;BME280;1809;48.470;9.226;2022-08-30T12:16:21;97007.97;;;29.26;100.00
3590;BME280;1809;48.470;9.226;2022-08-30T12:18:56;97007.72;;;29.47;100.00
3590;BME280;1809;48.470;9.226;2022-08-30T12:21:33;97005.69;;;29.14;100.00
3590;BME280;1809;48.470;9.226;2022-08-30T12:24:20;97002.44;;;29.97;99.87
3590;BME280;1809;48.470;9.226;2022-08-30T12:26:49;96994.22;;;29.94;91.20
3590;BME280;1809;48.470;9.226;2022-08-30T12:29:27;97000.09;;;29.96;96.95
3590;BME280;1809;48.470;9.226;2022-08-30T12:37:09;97000.25;;;30.42;89.44
3590;BME280;1809;48.470;9.226;2022-08-30T12:39:44;97005.59;;;30.56;87.63
3590;BME280;1809;48.470;9.226;2022-08-30T12:42:22;96994.06;;;30.34;88.17
3590;BME280;1809;48.470;9.226;2022-08-30T12:44:53;96984.81;;;30.48;90.32
3590;BME280;1809;48.470;9.226;2022-08-30T12:47:26;96987.19;;;30.46;89.39
3590;BME280;1809;48.470;9.226;2022-08-30T12:49:53;96985.31;;;30.89;84.00
3590;BME280;1809;48.470;9.226;2022-08-30T12:54:54;96982.38;;;30.23;94.92
3590;BME280;1809;48.470;9.226;2022-08-30T12:57:42;96970.13;;;29.98;94.41
3590;BME280;1809;48.470;9.226;2022-08-30T13:02:55;96964.66;;;29.23;92.62
3590;BME280;1809;48.470;9.226;2022-08-30T13:08:07;96955.66;;;29.19;100.00
3590;BME280;1809;48.470;9.226;2022-08-30T13:10:32;96952.84;;;29.26;100.00
3590;BME280;1809;48.470;9.226;2022-08-30T13:13:00;96958.38;;;29.26;96.44
3590;BME280;1809;48.470;9.226;2022-08-30T13:15:32;96951.47;;;29.04;100.00
3590;BME280;1809;48.470;9.226;2022-08-30T13:18:16;96944.31;;;29.10;100.00
3590;BME280;1809;48.470;9.226;2022-08-30T13:20:43;96937.25;;;29.09;98.51
3590;BME280;1809;48.470;9.226;2022-08-30T13:23:10;96938.06;;;29.06;100.00
3590;BME280;1809;48.470;9.226;2022-08-30T13:25:37;96933.38;;;29.03;100.00
3590;BME280;1809;48.470;9.226;2022-08-30T13:28:04;96931.53;;;29.30;100.00
3590;BME280;1809;48.470;9.226;2022-08-30T13:30:31;96924.13;;;29.57;97.98
3590;BME280;1809;48.470;9.226;2022-08-30T13:32:56;96925.25;;;29.29;99.17
3590;BME280;1809;48.470;9.226;2022-08-30T13:35:22;96921.72;;;28.88;100.00
3590;BME280;1809;48.470;9.226;2022-08-30T13:37:48;96916.41;;;29.08;100.00
3590;BME280;1809;48.470;9.226;2022-08-30T13:40:14;96921.19;;;29.04;100.00
3590;BME280;1809;48.470;9.226;2022-08-30T13:42:41;96913.72;;;29.01;100.00
3590;BME280;1809;48.470;9.226;2022-08-30T13:45:08;96910.75;;;28.85;100.00
3590;BME280;1809;48.470;9.226;2022-08-30T13:47:34;96906.47;;;29.17;100.00
3590;BME280;1809;48.470;9.226;2022-08-30T13:50:00;96907.28;;;29.14;100.00
3590;BME280;1809;48.470;9.226;2022-08-30T13:52:25;96901.81;;;29.11;100.00
3590;BME280;1809;48.470;9.226;2022-08-30T13:54:52;96897.72;;;28.89;100.00
3590;BME280;1809;48.470;9.226;2022-08-30T13:57:20;96898.44;;;28.93;100.00
3590;BME280;1809;48.470;9.226;2022-08-30T13:59:46;96899.91;;;28.63;100.00
3590;BME280;1809;48.470;9.226;2022-08-30T14:02:12;96892.00;;;28.69;100.00
3590;BME280;1809;48.470;9.226;2022-08-30T14:04:37;96884.03;;;28.81;100.00
3590;BME280;1809;48.470;9.226;2022-08-30T14:07:03;96893.41;;;28.88;100.00
3590;BME280;1809;48.470;9.226;2022-08-30T14:09:29;96891.75;;;28.94;100.00
3590;BME280;1809;48.470;9.226;2022-08-30T14:11:54;96888.66;;;28.92;100.00
3590;BME280;1809;48.470;9.226;2022-08-30T14:14:20;96887.22;;;28.76;100.00
3590;BME280;1809;48.470;9.226;2022-08-30T14:16:45;96882.47;;;28.77;100.00
3590;BME280;1809;48.470;9.226;2022-08-30T14:19:13;96881.78;;;28.69;100.00
3590;BME280;1809;48.470;9.226;2022-08-30T14:21:39;96882.47;;;28.77;100.00
3590;BME280;1809;48.470;9.226;2022-08-30T14:24:05;96887.97;;;28.77;100.00
3590;BME280;1809;48.470;9.226;2022-08-30T14:26:50;96887.25;;;28.73;100.00
3590;BME280;1809;48.470;9.226;2022-08-30T14:29:23;96878.00;;;28.94;100.00
3590;BME280;1809;48.470;9.226;2022-08-30T14:31:50;96882.38;;;28.88;100.00
3590;BME280;1809;48.470;9.226;2022-08-30T14:34:16;96880.94;;;28.76;100.00
3590;BME280;1809;48.470;9.226;2022-08-30T14:36:43;96880.31;;;28.99;100.00
3590;BME280;1809;48.470;9.226;2022-08-30T14:39:12;96875.84;;;29.08;100.00
3590;BME280;1809;48.470;9.226;2022-08-30T14:41:43;96880.59;;;29.08;100.00
3590;BME280;1809;48.470;9.226;2022-08-30T14:44:09;96871.03;;;29.19;100.00
3590;BME280;1809;48.470;9.226;2022-08-30T14:46:35;96866.28;;;29.20;100.00
3590;BME280;1809;48.470;9.226;2022-08-30T14:49:00;96868.63;;;29.25;100.00
3590;BME280;1809;48.470;9.226;2022-08-30T14:51:25;96875.50;;;29.40;100.00
3590;BME280;1809;48.470;9.226;2022-08-30T14:53:52;96870.03;;;29.37;100.00